sensor_id;sensor_type;location;lat;lon;timestamp;P1;durP1;ratioP1;P2;durP2;ratioP2
65315;SDS011;51920;53.952;10.292;2022-07-19T00:01:33;11.43;;;6.67;;
65315;SDS011;51920;53.952;10.292;2022-07-19T00:03:59;11.07;;;6.90;;
65315;SDS011;51920;53.952;10.292;2022-07-19T00:06:25;10.70;;;7.03;;
65315;SDS011;51920;53.952;10.292;2022-07-19T00:08:50;11.10;;;6.80;;
65315;SDS011;51920;53.952;10.292;2022-07-19T00:11:16;10.32;;;6.47;;
65315;SDS011;51920;53.952;10.292;2022-07-19T00:13:42;10.27;;;6.50;;
65315;SDS011;51920;53.952;10.292;2022-07-19T00:16:07;12.98;;;6.75;;
65315;SDS011;51920;53.952;10.292;2022-07-19T00:18:33;9.73;;;6.37;;
65315;SDS011;51920;53.952;10.292;2022-07-19T00:21:23;11.40;;;6.47;;
65315;SDS011;51920;53.952;10.292;2022-07-19T00:23:49;10.07;;;6.57;;
65315;SDS011;51920;53.952;10.292;2022-07-19T00:26:14;9.60;;;6.20;;
65315;SDS011;51920;53.952;10.292;2022-07-19T00:28:40;11.50;;;6.70;;
65315;SDS011;51920;53.952;10.292;2022-07-19T00:31:05;12.07;;;6.17;;
65315;SDS011;51920;53.952;10.292;2022-07-19T00:33:30;10.57;;;6.50;;
65315;SDS011;51920;53.952;10.292;2022-07-19T00:35:56;9.90;;;6.23;;
65315;SDS011;51920;53.952;10.292;2022-07-19T00:38:21;10.80;;;6.72;;
65315;SDS011;51920;53.952;10.292;2022-07-19T00:40:46;11.37;;;6.53;;
65315;SDS011;51920;53.952;10.292;2022-07-19T00:43:12;11.00;;;6.77;;
65315;SDS011;51920;53.952;10.292;2022-07-19T00:45:38;10.43;;;6.70;;
65315;SDS011;51920;53.952;10.292;2022-07-19T00:48:04;9.68;;;6.70;;
65315;SDS011;51920;53.952;10.292;2022-07-19T00:50:29;10.77;;;6.50;;
65315;SDS011;51920;53.952;10.292;2022-07-19T00:52:56;11.37;;;6.93;;
65315;SDS011;51920;53.952;10.292;2022-07-19T00:55:29;11.40;;;6.35;;
65315;SDS011;51920;53.952;10.292;2022-07-19T00:57:56;9.98;;;6.63;;
65315;SDS011;51920;53.952;10.292;2022-07-19T01:00:24;9.82;;;6.47;;
65315;SDS011;51920;53.952;10.292;2022-07-19T01:02:51;10.77;;;6.70;;
65315;SDS011;51920;53.952;10.292;2022-07-19T01:05:17;10.35;;;6.50;;
65315;SDS011;51920;53.952;10.292;2022-07-19T01:07:42;11.82;;;6.90;;
65315;SDS011;51920;53.952;10.292;2022-07-19T01:10:09;10.30;;;6.03;;
65315;SDS011;51920;53.952;10.292;2022-07-19T01:12:37;10.90;;;6.65;;
65315;SDS011;51920;53.952;10.292;2022-07-19T01:15:25;10.88;;;6.35;;
65315;SDS011;51920;53.952;10.292;2022-07-19T01:17:51;10.45;;;6.45;;
65315;SDS011;51920;53.952;10.292;2022-07-19T01:20:17;10.87;;;6.40;;
65315;SDS011;51920;53.952;10.292;2022-07-19T01:22:45;10.68;;;6.60;;
65315;SDS011;51920;53.952;10.292;2022-07-19T01:25:11;10.73;;;7.10;;
65315;SDS011;51920;53.952;10.292;2022-07-19T01:27:41;11.93;;;7.30;;
65315;SDS011;51920;53.952;10.292;2022-07-19T01:30:09;10.73;;;7.43;;
65315;SDS011;51920;53.952;10.292;2022-07-19T01:32:39;13.10;;;7.00;;
65315;SDS011;51920;53.952;10.292;2022-07-19T01:35:05;10.60;;;7.20;;
65315;SDS011;51920;53.952;10.292;2022-07-19T01:37:33;10.25;;;6.78;;
65315;SDS011;51920;53.952;10.292;2022-07-19T01:39:58;11.97;;;7.23;;
65315;SDS011;51920;53.952;10.292;2022-07-19T01:42:24;9.38;;;6.82;;
65315;SDS011;51920;53.952;10.292;2022-07-19T01:44:49;10.47;;;7.03;;
65315;SDS011;51920;53.952;10.292;2022-07-19T01:47:15;11.50;;;7.10;;
65315;SDS011;51920;53.952;10.292;2022-07-19T01:49:41;11.27;;;7.00;;
65315;SDS011;51920;53.952;10.292;2022-07-19T01:52:06;10.97;;;6.67;;
65315;SDS011;51920;53.952;10.292;2022-07-19T01:54:32;11.30;;;7.07;;
65315;SDS011;51920;53.952;10.292;2022-07-19T01:56:58;10.57;;;6.60;;
65315;SDS011;51920;53.952;10.292;2022-07-19T01:59:23;10.73;;;7.00;;
65315;SDS011;51920;53.952;10.292;2022-07-19T02:01:49;11.10;;;7.40;;
65315;SDS011;51920;53.952;10.292;2022-07-19T02:04:14;10.90;;;6.60;;
65315;SDS011;51920;53.952;10.292;2022-07-19T02:06:40;11.70;;;6.60;;
65315;SDS011;51920;53.952;10.292;2022-07-19T02:09:05;10.87;;;7.10;;
65315;SDS011;51920;53.952;10.292;2022-07-19T02:11:30;10.57;;;6.67;;
65315;SDS011;51920;53.952;10.292;2022-07-19T02:14:02;11.18;;;6.80;;
65315;SDS011;51920;53.952;10.292;2022-07-19T02:16:31;12.45;;;6.80;;
65315;SDS011;51920;53.952;10.292;2022-07-19T02:18:57;11.03;;;6.43;;
65315;SDS011;51920;53.952;10.292;2022-07-19T02:21:22;10.97;;;6.23;;
65315;SDS011;51920;53.952;10.292;2022-07-19T02:23:48;11.02;;;6.78;;
65315;SDS011;51920;53.952;10.292;2022-07-19T02:26:13;9.87;;;6.30;;
65315;SDS011;51920;53.952;10.292;2022-07-19T02:28:38;11.33;;;6.87;;
65315;SDS011;51920;53.952;10.292;2022-07-19T02:31:04;10.00;;;6.20;;
65315;SDS011;51920;53.952;10.292;2022-07-19T02:33:30;12.82;;;6.57;;
65315;SDS011;51920;53.952;10.292;2022-07-19T02:35:55;11.37;;;6.90;;
65315;SDS011;51920;53.952;10.292;2022-07-19T02:38:21;11.97;;;6.97;;
65315;SDS011;51920;53.952;10.292;2022-07-19T02:40:46;11.63;;;6.83;;
65315;SDS011;51920;53.952;10.292;2022-07-19T02:43:11;10.60;;;6.73;;
65315;SDS011;51920;53.952;10.292;2022-07-19T02:45:37;12.00;;;6.70;;
65315;SDS011;51920;53.952;10.292;2022-07-19T02:48:02;12.80;;;7.17;;
65315;SDS011;51920;53.952;10.292;2022-07-19T02:50:29;11.43;;;7.20;;
65315;SDS011;51920;53.952;10.292;2022-07-19T02:52:55;10.07;;;6.50;;
65315;SDS011;51920;53.952;10.292;2022-07-19T02:55:21;11.50;;;6.57;;
65315;SDS011;51920;53.952;10.292;2022-07-19T02:57:46;9.40;;;6.10;;
65315;SDS011;51920;53.952;10.292;2022-07-19T03:00:12;9.93;;;5.80;;
65315;SDS011;51920;53.952;10.292;2022-07-19T03:02:38;10.07;;;6.13;;
65315;SDS011;51920;53.952;10.292;2022-07-19T03:05:03;11.27;;;6.65;;
65315;SDS011;51920;53.952;10.292;2022-07-19T03:07:30;9.88;;;6.20;;
65315;SDS011;51920;53.952;10.292;2022-07-19T03:09:56;10.47;;;6.40;;
65315;SDS011;51920;53.952;10.292;2022-07-19T03:12:21;10.45;;;6.60;;
65315;SDS011;51920;53.952;10.292;2022-07-19T03:14:46;10.47;;;6.03;;
65315;SDS011;51920;53.952;10.292;2022-07-19T03:17:12;10.87;;;6.30;;
65315;SDS011;51920;53.952;10.292;2022-07-19T03:19:37;10.87;;;6.70;;
65315;SDS011;51920;53.952;10.292;2022-07-19T03:22:02;9.87;;;6.23;;
65315;SDS011;51920;53.952;10.292;2022-07-19T03:24:28;9.97;;;6.17;;
65315;SDS011;51920;53.952;10.292;2022-07-19T03:26:53;11.87;;;6.93;;
65315;SDS011;51920;53.952;10.292;2022-07-19T03:29:19;9.53;;;5.83;;
65315;SDS011;51920;53.952;10.292;2022-07-19T03:31:44;8.60;;;5.90;;
65315;SDS011;51920;53.952;10.292;2022-07-19T03:34:11;9.05;;;6.03;;
65315;SDS011;51920;53.952;10.292;2022-07-19T03:36:36;9.97;;;6.30;;
65315;SDS011;51920;53.952;10.292;2022-07-19T03:39:02;11.00;;;6.55;;
65315;SDS011;51920;53.952;10.292;2022-07-19T03:41:28;9.90;;;5.97;;
65315;SDS011;51920;53.952;10.292;2022-07-19T03:43:54;10.50;;;6.35;;
65315;SDS011;51920;53.952;10.292;2022-07-19T03:46:19;9.63;;;6.33;;
65315;SDS011;51920;53.952;10.292;2022-07-19T03:48:46;9.75;;;6.68;;
65315;SDS011;51920;53.952;10.292;2022-07-19T03:51:12;10.38;;;6.47;;
65315;SDS011;51920;53.952;10.292;2022-07-19T03:53:38;10.97;;;6.67;;
65315;SDS011;51920;53.952;10.292;2022-07-19T03:56:03;10.80;;;6.53;;
65315;SDS011;51920;53.952;10.292;2022-07-19T03:58:29;11.43;;;6.53;;
65315;SDS011;51920;53.952;10.292;2022-07-19T04:00:55;10.13;;;6.22;;
65315;SDS011;51920;53.952;10.292;2022-07-19T04:03:20;11.17;;;6.30;;
65315;SDS011;51920;53.952;10.292;2022-07-19T04:05:45;12.13;;;6.70;;
65315;SDS011;51920;53.952;10.292;2022-07-19T04:08:11;10.03;;;6.17;;
65315;SDS011;51920;53.952;10.292;2022-07-19T04:10:36;9.57;;;6.25;;
65315;SDS011;51920;53.952;10.292;2022-07-19T04:13:02;9.10;;;6.00;;
65315;SDS011;51920;53.952;10.292;2022-07-19T04:15:27;10.20;;;6.00;;
65315;SDS011;51920;53.952;10.292;2022-07-19T04:17:53;8.80;;;6.00;;
65315;SDS011;51920;53.952;10.292;2022-07-19T04:20:18;11.13;;;6.30;;
65315;SDS011;51920;53.952;10.292;2022-07-19T04:22:44;10.30;;;6.40;;
65315;SDS011;51920;53.952;10.292;2022-07-19T04:25:09;9.38;;;6.20;;
65315;SDS011;51920;53.952;10.292;2022-07-19T04:27:35;9.13;;;6.10;;
65315;SDS011;51920;53.952;10.292;2022-07-19T04:30:01;10.43;;;6.47;;
65315;SDS011;51920;53.952;10.292;2022-07-19T04:32:27;10.27;;;6.32;;
65315;SDS011;51920;53.952;10.292;2022-07-19T04:34:54;9.10;;;6.27;;
65315;SDS011;51920;53.952;10.292;2022-07-19T04:37:19;9.73;;;6.20;;
65315;SDS011;51920;53.952;10.292;2022-07-19T04:39:45;8.60;;;5.80;;
65315;SDS011;51920;53.952;10.292;2022-07-19T04:42:10;9.33;;;6.27;;
65315;SDS011;51920;53.952;10.292;2022-07-19T04:44:36;10.73;;;6.43;;
65315;SDS011;51920;53.952;10.292;2022-07-19T04:47:01;10.73;;;6.20;;
65315;SDS011;51920;53.952;10.292;2022-07-19T04:49:27;9.43;;;6.07;;
65315;SDS011;51920;53.952;10.292;2022-07-19T04:51:52;10.60;;;6.17;;
65315;SDS011;51920;53.952;10.292;2022-07-19T04:54:17;9.43;;;6.18;;
65315;SDS011;51920;53.952;10.292;2022-07-19T04:56:43;10.93;;;6.30;;
65315;SDS011;51920;53.952;10.292;2022-07-19T04:59:08;10.73;;;6.40;;
65315;SDS011;51920;53.952;10.292;2022-07-19T05:01:34;9.47;;;6.20;;
65315;SDS011;51920;53.952;10.292;2022-07-19T05:03:59;8.68;;;6.00;;
65315;SDS011;51920;53.952;10.292;2022-07-19T05:06:25;9.47;;;6.33;;
65315;SDS011;51920;53.952;10.292;2022-07-19T05:08:51;8.77;;;5.82;;
65315;SDS011;51920;53.952;10.292;2022-07-19T05:11:18;9.53;;;6.20;;
65315;SDS011;51920;53.952;10.292;2022-07-19T05:13:43;9.73;;;6.25;;
65315;SDS011;51920;53.952;10.292;2022-07-19T05:16:09;8.88;;;6.15;;
65315;SDS011;51920;53.952;10.292;2022-07-19T05:18:35;9.03;;;6.30;;
65315;SDS011;51920;53.952;10.292;2022-07-19T05:21:00;8.67;;;5.90;;
65315;SDS011;51920;53.952;10.292;2022-07-19T05:23:26;9.38;;;6.32;;
65315;SDS011;51920;53.952;10.292;2022-07-19T05:25:51;9.13;;;6.27;;
65315;SDS011;51920;53.952;10.292;2022-07-19T05:28:16;9.70;;;6.33;;
65315;SDS011;51920;53.952;10.292;2022-07-19T05:30:42;9.05;;;5.95;;
65315;SDS011;51920;53.952;10.292;2022-07-19T05:33:08;8.63;;;5.73;;
65315;SDS011;51920;53.952;10.292;2022-07-19T05:35:34;10.70;;;6.50;;
65315;SDS011;51920;53.952;10.292;2022-07-19T05:37:59;10.33;;;6.47;;
65315;SDS011;51920;53.952;10.292;2022-07-19T05:40:25;10.23;;;6.37;;
65315;SDS011;51920;53.952;10.292;2022-07-19T05:42:50;8.83;;;6.13;;
65315;SDS011;51920;53.952;10.292;2022-07-19T05:45:15;9.07;;;6.27;;
65315;SDS011;51920;53.952;10.292;2022-07-19T05:47:41;8.13;;;6.10;;
65315;SDS011;51920;53.952;10.292;2022-07-19T05:50:06;9.80;;;6.47;;
65315;SDS011;51920;53.952;10.292;2022-07-19T05:52:32;9.73;;;6.07;;
65315;SDS011;51920;53.952;10.292;2022-07-19T05:54:57;8.83;;;6.37;;
65315;SDS011;51920;53.952;10.292;2022-07-19T05:57:23;8.33;;;6.00;;
65315;SDS011;51920;53.952;10.292;2022-07-19T05:59:48;9.18;;;5.95;;
65315;SDS011;51920;53.952;10.292;2022-07-19T06:02:13;9.10;;;6.30;;
65315;SDS011;51920;53.952;10.292;2022-07-19T06:04:40;8.00;;;5.57;;
65315;SDS011;51920;53.952;10.292;2022-07-19T06:07:05;7.97;;;5.70;;
65315;SDS011;51920;53.952;10.292;2022-07-19T06:09:30;7.43;;;6.03;;
65315;SDS011;51920;53.952;10.292;2022-07-19T06:11:56;9.35;;;6.60;;
65315;SDS011;51920;53.952;10.292;2022-07-19T06:14:22;8.53;;;5.87;;
65315;SDS011;51920;53.952;10.292;2022-07-19T06:16:47;8.80;;;5.67;;
65315;SDS011;51920;53.952;10.292;2022-07-19T06:19:12;9.13;;;5.43;;
65315;SDS011;51920;53.952;10.292;2022-07-19T06:21:38;9.30;;;6.00;;
65315;SDS011;51920;53.952;10.292;2022-07-19T06:24:04;8.67;;;5.90;;
65315;SDS011;51920;53.952;10.292;2022-07-19T06:26:29;9.73;;;5.90;;
65315;SDS011;51920;53.952;10.292;2022-07-19T06:28:55;8.63;;;5.67;;
65315;SDS011;51920;53.952;10.292;2022-07-19T06:31:21;10.15;;;5.60;;
65315;SDS011;51920;53.952;10.292;2022-07-19T06:33:48;9.05;;;5.85;;
65315;SDS011;51920;53.952;10.292;2022-07-19T06:36:15;8.77;;;6.10;;
65315;SDS011;51920;53.952;10.292;2022-07-19T06:38:41;8.15;;;5.80;;
65315;SDS011;51920;53.952;10.292;2022-07-19T06:41:07;8.90;;;5.67;;
65315;SDS011;51920;53.952;10.292;2022-07-19T06:43:33;8.65;;;5.82;;
65315;SDS011;51920;53.952;10.292;2022-07-19T06:45:59;8.02;;;5.30;;
65315;SDS011;51920;53.952;10.292;2022-07-19T06:48:25;7.53;;;5.20;;
65315;SDS011;51920;53.952;10.292;2022-07-19T06:50:50;8.00;;;5.40;;
65315;SDS011;51920;53.952;10.292;2022-07-19T06:53:16;8.33;;;5.07;;
65315;SDS011;51920;53.952;10.292;2022-07-19T06:55:41;8.17;;;5.43;;
65315;SDS011;51920;53.952;10.292;2022-07-19T06:58:07;7.70;;;5.47;;
65315;SDS011;51920;53.952;10.292;2022-07-19T07:00:32;7.23;;;4.97;;
65315;SDS011;51920;53.952;10.292;2022-07-19T07:02:58;7.30;;;5.17;;
65315;SDS011;51920;53.952;10.292;2022-07-19T07:05:23;6.55;;;5.03;;
65315;SDS011;51920;53.952;10.292;2022-07-19T07:07:49;10.33;;;5.10;;
65315;SDS011;51920;53.952;10.292;2022-07-19T07:10:16;7.60;;;4.43;;
65315;SDS011;51920;53.952;10.292;2022-07-19T07:12:42;7.70;;;4.82;;
65315;SDS011;51920;53.952;10.292;2022-07-19T07:15:08;7.50;;;5.00;;
65315;SDS011;51920;53.952;10.292;2022-07-19T07:17:34;6.68;;;4.85;;
65315;SDS011;51920;53.952;10.292;2022-07-19T07:20:00;7.57;;;4.80;;
65315;SDS011;51920;53.952;10.292;2022-07-19T07:22:26;7.53;;;4.70;;
65315;SDS011;51920;53.952;10.292;2022-07-19T07:24:51;7.20;;;4.80;;
65315;SDS011;51920;53.952;10.292;2022-07-19T07:27:17;8.48;;;4.72;;
65315;SDS011;51920;53.952;10.292;2022-07-19T07:29:42;6.63;;;4.60;;
65315;SDS011;51920;53.952;10.292;2022-07-19T07:32:08;7.30;;;4.73;;
65315;SDS011;51920;53.952;10.292;2022-07-19T07:34:33;7.40;;;4.28;;
65315;SDS011;51920;53.952;10.292;2022-07-19T07:36:58;5.80;;;4.20;;
65315;SDS011;51920;53.952;10.292;2022-07-19T07:39:24;7.33;;;4.63;;
65315;SDS011;51920;53.952;10.292;2022-07-19T07:41:49;6.73;;;4.20;;
65315;SDS011;51920;53.952;10.292;2022-07-19T07:44:15;9.43;;;4.30;;
65315;SDS011;51920;53.952;10.292;2022-07-19T07:46:40;6.72;;;4.22;;
65315;SDS011;51920;53.952;10.292;2022-07-19T07:49:06;6.90;;;4.10;;
65315;SDS011;51920;53.952;10.292;2022-07-19T07:51:31;6.53;;;4.30;;
65315;SDS011;51920;53.952;10.292;2022-07-19T07:53:58;5.80;;;4.20;;
65315;SDS011;51920;53.952;10.292;2022-07-19T07:56:24;6.43;;;4.07;;
65315;SDS011;51920;53.952;10.292;2022-07-19T07:58:50;7.05;;;4.03;;
65315;SDS011;51920;53.952;10.292;2022-07-19T08:01:15;6.70;;;4.07;;
65315;SDS011;51920;53.952;10.292;2022-07-19T08:03:41;7.63;;;3.95;;
65315;SDS011;51920;53.952;10.292;2022-07-19T08:06:06;6.03;;;3.80;;
65315;SDS011;51920;53.952;10.292;2022-07-19T08:08:32;6.55;;;4.20;;
65315;SDS011;51920;53.952;10.292;2022-07-19T08:10:57;5.40;;;3.97;;
65315;SDS011;51920;53.952;10.292;2022-07-19T08:13:23;6.23;;;3.93;;
65315;SDS011;51920;53.952;10.292;2022-07-19T08:15:48;5.83;;;4.07;;
65315;SDS011;51920;53.952;10.292;2022-07-19T08:18:14;6.25;;;4.00;;
65315;SDS011;51920;53.952;10.292;2022-07-19T08:20:40;6.07;;;3.90;;
65315;SDS011;51920;53.952;10.292;2022-07-19T08:23:05;7.20;;;3.90;;
65315;SDS011;51920;53.952;10.292;2022-07-19T08:25:31;7.17;;;3.97;;
65315;SDS011;51920;53.952;10.292;2022-07-19T08:27:58;8.85;;;3.92;;
65315;SDS011;51920;53.952;10.292;2022-07-19T08:30:24;6.87;;;4.10;;
65315;SDS011;51920;53.952;10.292;2022-07-19T08:32:49;5.85;;;3.83;;
65315;SDS011;51920;53.952;10.292;2022-07-19T08:35:15;6.57;;;3.90;;
65315;SDS011;51920;53.952;10.292;2022-07-19T08:37:40;5.97;;;4.00;;
65315;SDS011;51920;53.952;10.292;2022-07-19T08:40:06;6.90;;;3.90;;
65315;SDS011;51920;53.952;10.292;2022-07-19T08:42:32;6.38;;;4.10;;
65315;SDS011;51920;53.952;10.292;2022-07-19T08:45:03;5.25;;;3.40;;
65315;SDS011;51920;53.952;10.292;2022-07-19T08:47:31;5.75;;;3.63;;
65315;SDS011;51920;53.952;10.292;2022-07-19T08:49:59;6.43;;;3.43;;
65315;SDS011;51920;53.952;10.292;2022-07-19T08:52:25;5.80;;;3.70;;
65315;SDS011;51920;53.952;10.292;2022-07-19T08:54:51;4.93;;;3.53;;
65315;SDS011;51920;53.952;10.292;2022-07-19T08:57:17;5.40;;;3.43;;
65315;SDS011;51920;53.952;10.292;2022-07-19T09:00:01;5.20;;;3.50;;
65315;SDS011;51920;53.952;10.292;2022-07-19T09:02:28;5.32;;;3.30;;
65315;SDS011;51920;53.952;10.292;2022-07-19T09:05:03;6.90;;;3.60;;
65315;SDS011;51920;53.952;10.292;2022-07-19T09:07:33;4.57;;;3.33;;
65315;SDS011;51920;53.952;10.292;2022-07-19T09:10:17;6.47;;;3.67;;
65315;SDS011;51920;53.952;10.292;2022-07-19T09:15:48;6.22;;;3.50;;
65315;SDS011;51920;53.952;10.292;2022-07-19T09:18:16;6.60;;;3.78;;
65315;SDS011;51920;53.952;10.292;2022-07-19T09:20:42;5.03;;;3.60;;
65315;SDS011;51920;53.952;10.292;2022-07-19T09:23:08;5.47;;;3.30;;
65315;SDS011;51920;53.952;10.292;2022-07-19T09:25:38;5.27;;;3.90;;
65315;SDS011;51920;53.952;10.292;2022-07-19T09:28:05;5.40;;;3.92;;
65315;SDS011;51920;53.952;10.292;2022-07-19T09:30:35;5.07;;;3.80;;
65315;SDS011;51920;53.952;10.292;2022-07-19T09:33:10;6.13;;;3.70;;
65315;SDS011;51920;53.952;10.292;2022-07-19T09:35:44;6.00;;;5.03;;
65315;SDS011;51920;53.952;10.292;2022-07-19T09:38:21;6.95;;;3.60;;
65315;SDS011;51920;53.952;10.292;2022-07-19T09:40:47;5.43;;;3.53;;
65315;SDS011;51920;53.952;10.292;2022-07-19T09:43:14;4.75;;;3.60;;
65315;SDS011;51920;53.952;10.292;2022-07-19T09:45:40;5.70;;;3.73;;
65315;SDS011;51920;53.952;10.292;2022-07-19T09:48:05;5.35;;;3.55;;
65315;SDS011;51920;53.952;10.292;2022-07-19T09:50:31;6.90;;;3.27;;
65315;SDS011;51920;53.952;10.292;2022-07-19T09:52:58;4.77;;;3.40;;
65315;SDS011;51920;53.952;10.292;2022-07-19T09:55:25;7.03;;;3.42;;
65315;SDS011;51920;53.952;10.292;2022-07-19T09:57:52;5.47;;;3.70;;
65315;SDS011;51920;53.952;10.292;2022-07-19T10:00:21;4.95;;;3.50;;
65315;SDS011;51920;53.952;10.292;2022-07-19T10:02:48;5.20;;;3.88;;
65315;SDS011;51920;53.952;10.292;2022-07-19T10:05:16;7.03;;;3.40;;
65315;SDS011;51920;53.952;10.292;2022-07-19T10:07:41;6.25;;;3.40;;
65315;SDS011;51920;53.952;10.292;2022-07-19T10:10:12;5.53;;;3.37;;
65315;SDS011;51920;53.952;10.292;2022-07-19T10:12:40;5.55;;;3.38;;
65315;SDS011;51920;53.952;10.292;2022-07-19T10:15:07;5.95;;;3.30;;
65315;SDS011;51920;53.952;10.292;2022-07-19T10:17:34;4.88;;;3.28;;
65315;SDS011;51920;53.952;10.292;2022-07-19T10:20:03;5.38;;;3.45;;
65315;SDS011;51920;53.952;10.292;2022-07-19T10:22:34;4.73;;;3.00;;
65315;SDS011;51920;53.952;10.292;2022-07-19T10:32:27;17.80;;;5.63;;
65315;SDS011;51920;53.952;10.292;2022-07-19T10:37:41;6.70;;;3.50;;
65315;SDS011;51920;53.952;10.292;2022-07-19T10:40:07;5.32;;;3.15;;
65315;SDS011;51920;53.952;10.292;2022-07-19T10:42:33;4.40;;;2.90;;
65315;SDS011;51920;53.952;10.292;2022-07-19T10:52:33;3.65;;;2.50;;
65315;SDS011;51920;53.952;10.292;2022-07-19T11:00:33;3.83;;;2.90;;
65315;SDS011;51920;53.952;10.292;2022-07-19T11:05:56;3.67;;;2.80;;
65315;SDS011;51920;53.952;10.292;2022-07-19T11:08:32;4.28;;;3.22;;
65315;SDS011;51920;53.952;10.292;2022-07-19T11:11:14;3.80;;;2.60;;
65315;SDS011;51920;53.952;10.292;2022-07-19T11:13:43;4.60;;;2.70;;
65315;SDS011;51920;53.952;10.292;2022-07-19T11:16:10;4.40;;;2.80;;
65315;SDS011;51920;53.952;10.292;2022-07-19T11:18:35;5.47;;;2.67;;
65315;SDS011;51920;53.952;10.292;2022-07-19T11:21:01;3.73;;;2.60;;
65315;SDS011;51920;53.952;10.292;2022-07-19T11:23:29;4.07;;;2.58;;
65315;SDS011;51920;53.952;10.292;2022-07-19T11:26:12;6.07;;;2.78;;
65315;SDS011;51920;53.952;10.292;2022-07-19T11:28:40;3.25;;;2.60;;
65315;SDS011;51920;53.952;10.292;2022-07-19T11:31:11;7.22;;;3.00;;
65315;SDS011;51920;53.952;10.292;2022-07-19T11:33:38;4.07;;;2.80;;
65315;SDS011;51920;53.952;10.292;2022-07-19T11:36:03;4.10;;;3.33;;
65315;SDS011;51920;53.952;10.292;2022-07-19T11:38:33;3.70;;;3.00;;
65315;SDS011;51920;53.952;10.292;2022-07-19T11:41:02;4.88;;;3.22;;
65315;SDS011;51920;53.952;10.292;2022-07-19T11:43:28;4.03;;;3.00;;
65315;SDS011;51920;53.952;10.292;2022-07-19T11:45:54;4.13;;;2.90;;
65315;SDS011;51920;53.952;10.292;2022-07-19T11:48:27;4.13;;;3.00;;
65315;SDS011;51920;53.952;10.292;2022-07-19T11:50:57;6.68;;;3.10;;
65315;SDS011;51920;53.952;10.292;2022-07-19T11:53:24;4.57;;;2.80;;
65315;SDS011;51920;53.952;10.292;2022-07-19T11:55:49;4.50;;;3.03;;
65315;SDS011;51920;53.952;10.292;2022-07-19T11:58:14;4.10;;;3.08;;
65315;SDS011;51920;53.952;10.292;2022-07-19T12:00:40;3.83;;;2.73;;
65315;SDS011;51920;53.952;10.292;2022-07-19T12:03:12;3.85;;;2.72;;
65315;SDS011;51920;53.952;10.292;2022-07-19T12:05:53;5.07;;;2.80;;
65315;SDS011;51920;53.952;10.292;2022-07-19T12:08:31;4.68;;;2.75;;
65315;SDS011;51920;53.952;10.292;2022-07-19T12:11:00;3.87;;;2.50;;
65315;SDS011;51920;53.952;10.292;2022-07-19T12:13:30;3.80;;;3.10;;
65315;SDS011;51920;53.952;10.292;2022-07-19T12:16:07;3.47;;;2.60;;
65315;SDS011;51920;53.952;10.292;2022-07-19T12:18:41;5.80;;;2.42;;
65315;SDS011;51920;53.952;10.292;2022-07-19T12:21:24;3.92;;;2.63;;
65315;SDS011;51920;53.952;10.292;2022-07-19T12:32:16;5.20;;;2.70;;
65315;SDS011;51920;53.952;10.292;2022-07-19T12:34:55;3.97;;;2.70;;
65315;SDS011;51920;53.952;10.292;2022-07-19T12:37:27;3.80;;;2.40;;
65315;SDS011;51920;53.952;10.292;2022-07-19T12:40:02;2.90;;;2.35;;
65315;SDS011;51920;53.952;10.292;2022-07-19T12:42:34;4.65;;;2.70;;
65315;SDS011;51920;53.952;10.292;2022-07-19T12:45:04;3.50;;;2.50;;
65315;SDS011;51920;53.952;10.292;2022-07-19T12:47:31;3.33;;;2.60;;
65315;SDS011;51920;53.952;10.292;2022-07-19T12:49:56;3.50;;;2.60;;
65315;SDS011;51920;53.952;10.292;2022-07-19T12:52:22;4.53;;;2.67;;
65315;SDS011;51920;53.952;10.292;2022-07-19T12:54:47;3.37;;;2.57;;
65315;SDS011;51920;53.952;10.292;2022-07-19T12:57:12;3.80;;;2.70;;
65315;SDS011;51920;53.952;10.292;2022-07-19T12:59:38;4.13;;;2.23;;
65315;SDS011;51920;53.952;10.292;2022-07-19T13:02:08;3.97;;;2.47;;
65315;SDS011;51920;53.952;10.292;2022-07-19T13:04:39;3.42;;;2.20;;
65315;SDS011;51920;53.952;10.292;2022-07-19T13:07:06;3.37;;;2.30;;
65315;SDS011;51920;53.952;10.292;2022-07-19T13:09:33;4.78;;;2.60;;
65315;SDS011;51920;53.952;10.292;2022-07-19T13:12:00;3.97;;;2.50;;
65315;SDS011;51920;53.952;10.292;2022-07-19T13:14:26;3.58;;;2.40;;
65315;SDS011;51920;53.952;10.292;2022-07-19T13:16:52;4.70;;;2.50;;
65315;SDS011;51920;53.952;10.292;2022-07-19T13:19:20;5.03;;;2.37;;
65315;SDS011;51920;53.952;10.292;2022-07-19T13:21:46;3.42;;;2.50;;
65315;SDS011;51920;53.952;10.292;2022-07-19T13:24:12;3.83;;;2.60;;
65315;SDS011;51920;53.952;10.292;2022-07-19T13:26:38;6.20;;;2.30;;
65315;SDS011;51920;53.952;10.292;2022-07-19T13:29:03;3.42;;;2.60;;
65315;SDS011;51920;53.952;10.292;2022-07-19T13:31:29;2.73;;;2.43;;
65315;SDS011;51920;53.952;10.292;2022-07-19T13:33:55;3.47;;;2.50;;
65315;SDS011;51920;53.952;10.292;2022-07-19T13:36:20;3.90;;;2.63;;
65315;SDS011;51920;53.952;10.292;2022-07-19T13:38:46;3.97;;;2.53;;
65315;SDS011;51920;53.952;10.292;2022-07-19T13:41:13;4.32;;;2.60;;
65315;SDS011;51920;53.952;10.292;2022-07-19T13:43:39;4.78;;;2.47;;
65315;SDS011;51920;53.952;10.292;2022-07-19T13:46:04;4.07;;;2.57;;
65315;SDS011;51920;53.952;10.292;2022-07-19T13:48:30;5.38;;;2.45;;
65315;SDS011;51920;53.952;10.292;2022-07-19T13:50:55;3.00;;;2.33;;
65315;SDS011;51920;53.952;10.292;2022-07-19T13:53:20;3.87;;;2.67;;
65315;SDS011;51920;53.952;10.292;2022-07-19T13:55:46;4.40;;;2.67;;
65315;SDS011;51920;53.952;10.292;2022-07-19T13:58:12;4.33;;;2.57;;
65315;SDS011;51920;53.952;10.292;2022-07-19T14:00:37;3.63;;;2.50;;
65315;SDS011;51920;53.952;10.292;2022-07-19T14:03:03;4.22;;;2.72;;
65315;SDS011;51920;53.952;10.292;2022-07-19T14:05:28;3.67;;;2.60;;
65315;SDS011;51920;53.952;10.292;2022-07-19T14:07:54;4.83;;;2.67;;
65315;SDS011;51920;53.952;10.292;2022-07-19T14:10:19;4.95;;;2.92;;
65315;SDS011;51920;53.952;10.292;2022-07-19T14:12:44;4.47;;;2.83;;
65315;SDS011;51920;53.952;10.292;2022-07-19T14:15:10;5.47;;;2.90;;
65315;SDS011;51920;53.952;10.292;2022-07-19T14:17:35;5.23;;;2.80;;
65315;SDS011;51920;53.952;10.292;2022-07-19T14:20:02;4.05;;;2.60;;
65315;SDS011;51920;53.952;10.292;2022-07-19T14:22:28;4.15;;;3.00;;
65315;SDS011;51920;53.952;10.292;2022-07-19T14:24:54;4.30;;;2.90;;
65315;SDS011;51920;53.952;10.292;2022-07-19T14:27:19;4.28;;;2.80;;
65315;SDS011;51920;53.952;10.292;2022-07-19T14:29:45;4.37;;;2.80;;
65315;SDS011;51920;53.952;10.292;2022-07-19T14:32:10;4.13;;;2.97;;
65315;SDS011;51920;53.952;10.292;2022-07-19T14:34:36;3.92;;;2.65;;
65315;SDS011;51920;53.952;10.292;2022-07-19T14:37:02;4.22;;;3.00;;
65315;SDS011;51920;53.952;10.292;2022-07-19T14:39:28;4.97;;;2.80;;
65315;SDS011;51920;53.952;10.292;2022-07-19T14:41:54;4.40;;;2.80;;
65315;SDS011;51920;53.952;10.292;2022-07-19T14:44:19;4.83;;;3.13;;
65315;SDS011;51920;53.952;10.292;2022-07-19T14:46:44;4.90;;;2.63;;
65315;SDS011;51920;53.952;10.292;2022-07-19T14:49:10;5.93;;;4.23;;
65315;SDS011;51920;53.952;10.292;2022-07-19T14:51:35;4.75;;;2.72;;
65315;SDS011;51920;53.952;10.292;2022-07-19T14:54:01;4.20;;;2.87;;
65315;SDS011;51920;53.952;10.292;2022-07-19T14:56:27;4.22;;;2.58;;
65315;SDS011;51920;53.952;10.292;2022-07-19T14:58:53;5.03;;;2.60;;
65315;SDS011;51920;53.952;10.292;2022-07-19T15:01:18;3.53;;;2.70;;
65315;SDS011;51920;53.952;10.292;2022-07-19T15:03:43;4.47;;;3.40;;
65315;SDS011;51920;53.952;10.292;2022-07-19T15:06:09;4.33;;;2.60;;